Time;durP1;ratioP1;P1;durP2;ratioP2;P2;SDS_P1;SDS_P2;PMS_P1;PMS_P2;Temp;Humidity;BMP_temperature;BMP_pressure;BME280_temperature;BME280_humidity;BME280_pressure;Samples;Min_cycle;Max_cycle;Signal;HPM_P1;HPM_P2
2023/02/07 00:01:29;;;;;;;13.85;8.00;;;-4.70;99.90;;;;;;4947904;28;20107;-34
2023/02/07 00:03:56;;;;;;;11.27;7.55;;;-4.70;99.90;;;;;;4952410;28;20034;-32
2023/02/07 00:06:25;;;;;;;11.70;7.43;;;-4.80;99.90;;;;;;4948229;28;20094;-36
2023/02/07 00:08:51;;;;;;;10.02;6.25;;;-4.90;99.90;;;;;;4948686;28;20483;-34
2023/02/07 00:11:19;;;;;;;12.25;8.60;;;-4.90;99.90;;;;;;4961308;28;20042;-32
2023/02/07 00:13:46;;;;;;;9.38;6.35;;;-4.90;99.90;;;;;;4945736;28;20042;-34
2023/02/07 00:16:12;;;;;;;14.05;8.15;;;-4.80;99.90;;;;;;4946301;28;20442;-35
2023/02/07 00:18:38;;;;;;;12.60;6.45;;;-4.80;99.90;;;;;;4944213;28;20030;-33
2023/02/07 00:21:06;;;;;;;15.88;7.97;;;-4.80;99.90;;;;;;4964877;28;20518;-31
2023/02/07 00:23:33;;;;;;;10.30;6.75;;;-4.90;99.90;;;;;;4968000;28;20030;-34
2023/02/07 00:25:58;;;;;;;8.98;6.88;;;-5.10;99.90;;;;;;4967152;28;20059;-31
2023/02/07 00:28:25;;;;;;;11.10;6.85;;;-5.20;99.90;;;;;;4954787;28;20038;-34
2023/02/07 00:31:00;;;;;;;14.85;7.25;;;-5.10;99.90;;;;;;4947024;28;20105;-34
2023/02/07 00:33:26;;;;;;;16.23;8.13;;;-5.00;99.90;;;;;;4947510;28;20031;-32
2023/02/07 00:36:00;;;;;;;13.70;7.47;;;-5.00;99.90;;;;;;4946627;28;20053;-31
2023/02/07 00:38:26;;;;;;;13.90;7.07;;;-5.10;99.90;;;;;;4942684;28;20030;-32
2023/02/07 00:40:52;;;;;;;10.10;6.68;;;-5.20;99.90;;;;;;4949537;28;20392;-33
2023/02/07 00:43:18;;;;;;;9.30;7.03;;;-5.30;99.90;;;;;;4948529;28;20023;-31
2023/02/07 00:45:43;;;;;;;14.07;8.02;;;-5.30;99.90;;;;;;4948703;28;20034;-35
2023/02/07 00:48:09;;;;;;;8.65;6.50;;;-5.30;99.90;;;;;;4942965;28;20030;-34
2023/02/07 00:50:34;;;;;;;12.23;8.88;;;-5.30;99.90;;;;;;4950497;28;20137;-32
2023/02/07 00:53:00;;;;;;;13.40;7.32;;;-5.20;99.90;;;;;;4949077;28;20038;-32
2023/02/07 00:55:25;;;;;;;12.10;7.35;;;-5.20;99.90;;;;;;4944605;28;20054;-31
2023/02/07 00:57:51;;;;;;;8.95;6.55;;;-5.00;99.90;;;;;;4945525;28;20118;-36
2023/02/07 01:00:17;;;;;;;9.57;6.72;;;-4.90;99.90;;;;;;4949181;28;20034;-31
2023/02/07 01:02:42;;;;;;;8.73;7.72;;;-4.80;99.90;;;;;;4944412;28;20080;-33
2023/02/07 01:05:08;;;;;;;9.98;6.80;;;-4.70;99.90;;;;;;4945458;28;20047;-33
2023/02/07 01:07:33;;;;;;;13.00;7.65;;;-4.50;99.90;;;;;;4946104;28;20039;-32
2023/02/07 01:09:59;;;;;;;15.27;8.23;;;-4.60;99.90;;;;;;4946674;28;20045;-35
2023/02/07 01:12:25;;;;;;;13.65;7.70;;;-4.70;99.90;;;;;;4945365;28;20429;-32
2023/02/07 01:14:50;;;;;;;11.65;8.57;;;-4.70;99.90;;;;;;4942818;28;20745;-35
2023/02/07 01:17:16;;;;;;;15.88;7.88;;;-4.80;99.90;;;;;;4944904;28;20054;-35
2023/02/07 01:19:41;;;;;;;9.05;6.18;;;-5.00;99.90;;;;;;4944289;28;20046;-31
2023/02/07 01:22:07;;;;;;;11.20;7.13;;;-5.20;99.90;;;;;;4944457;28;20038;-33
2023/02/07 01:24:34;;;;;;;10.60;7.45;;;-5.30;99.90;;;;;;4943406;28;20822;-36
2023/02/07 01:27:00;;;;;;;9.95;7.80;;;-5.50;99.90;;;;;;4946275;28;20449;-32
2023/02/07 01:29:25;;;;;;;8.05;6.32;;;-5.50;99.90;;;;;;4943832;28;20038;-32
2023/02/07 01:31:52;;;;;;;10.45;5.85;;;-5.50;99.90;;;;;;4942482;28;20039;-33
2023/02/07 01:34:18;;;;;;;8.10;6.80;;;-5.40;99.90;;;;;;4945100;28;20562;-32
2023/02/07 01:36:44;;;;;;;14.05;8.68;;;-5.40;99.90;;;;;;4946973;28;20027;-32
2023/02/07 01:39:10;;;;;;;12.35;7.32;;;-5.30;99.90;;;;;;4943893;28;20056;-36
2023/02/07 01:41:36;;;;;;;8.30;6.30;;;-5.30;99.90;;;;;;4945121;28;20571;-34
2023/02/07 01:44:26;;;;;;;13.32;8.05;;;-5.40;99.90;;;;;;4944417;28;20035;-36
2023/02/07 01:46:53;;;;;;;8.90;6.68;;;-5.50;99.90;;;;;;4931712;28;20042;-34
2023/02/07 01:49:31;;;;;;;11.70;7.22;;;-5.50;99.90;;;;;;4946063;28;20037;-37
2023/02/07 01:52:05;;;;;;;12.43;6.70;;;-5.40;99.90;;;;;;4945271;28;21140;-34
2023/02/07 01:54:32;;;;;;;12.35;6.03;;;-5.50;99.90;;;;;;4944947;28;20211;-34
2023/02/07 01:57:03;;;;;;;8.55;6.65;;;-5.60;99.90;;;;;;4952278;28;20500;-31
2023/02/07 01:59:30;;;;;;;9.45;5.57;;;-5.70;99.90;;;;;;4944694;28;20434;-32
2023/02/07 02:01:56;;;;;;;9.95;7.05;;;-5.80;99.90;;;;;;4975983;28;20049;-32
2023/02/07 02:04:22;;;;;;;14.90;8.10;;;-5.90;99.90;;;;;;4944537;28;20038;-32
2023/02/07 02:06:48;;;;;;;14.27;9.07;;;-6.00;99.90;;;;;;4952839;28;20034;-31
2023/02/07 02:09:15;;;;;;;14.75;8.60;;;-5.90;99.90;;;;;;4945631;28;20552;-31
2023/02/07 02:12:07;;;;;;;11.45;8.52;;;-5.90;99.90;;;;;;4948394;28;20027;-31
2023/02/07 02:15:15;;;;;;;16.48;6.82;;;-5.90;99.90;;;;;;4949860;28;20066;-36
2023/02/07 02:18:19;;;;;;;12.63;6.63;;;-5.80;99.90;;;;;;4950293;28;20480;-34
2023/02/07 02:21:13;;;;;;;10.77;8.15;;;-5.80;99.90;;;;;;4948373;28;20035;-36
2023/02/07 02:24:01;;;;;;;13.43;9.00;;;-5.90;99.90;;;;;;4948750;28;20117;-34
2023/02/07 02:26:59;;;;;;;12.47;7.13;;;-5.80;99.90;;;;;;4946266;28;20496;-32
2023/02/07 02:29:46;;;;;;;14.85;8.13;;;-5.90;99.90;;;;;;4964931;28;20581;-31
2023/02/07 02:32:52;;;;;;;18.15;10.05;;;-5.90;99.90;;;;;;4965227;28;20047;-31
2023/02/07 02:35:48;;;;;;;16.67;9.82;;;-5.90;99.90;;;;;;4984981;28;20066;-34
2023/02/07 02:38:21;;;;;;;17.70;10.80;;;-5.90;99.90;;;;;;4963332;28;20034;-31
2023/02/07 02:41:02;;;;;;;17.05;11.07;;;-5.90;99.90;;;;;;4967899;28;20027;-33
2023/02/07 02:43:45;;;;;;;22.08;12.85;;;-5.80;99.90;;;;;;4966056;28;20027;-35
2023/02/07 02:46:15;;;;;;;20.27;12.30;;;-5.80;99.90;;;;;;4968367;28;20039;-31
2023/02/07 02:48:42;;;;;;;18.38;9.90;;;-5.70;99.90;;;;;;4961219;28;20070;-32
2023/02/07 02:51:08;;;;;;;18.70;11.20;;;-5.60;99.90;;;;;;4950672;28;20045;-33
2023/02/07 02:53:34;;;;;;;16.92;10.48;;;-5.50;99.90;;;;;;4951368;28;20043;-34
2023/02/07 02:56:52;;;;;;;19.00;10.10;;;-5.50;99.90;;;;;;4944667;28;20101;-32
2023/02/07 02:59:39;;;;;;;13.27;8.00;;;-5.60;99.90;;;;;;4947882;28;20055;-35
2023/02/07 03:02:23;;;;;;;9.70;6.68;;;-5.60;99.90;;;;;;4948193;28;20404;-34
2023/02/07 03:04:57;;;;;;;10.38;8.40;;;-5.60;99.90;;;;;;4950570;28;20444;-36
2023/02/07 03:07:22;;;;;;;12.82;7.65;;;-5.60;99.90;;;;;;4953994;28;20031;-32
2023/02/07 03:09:54;;;;;;;12.65;8.18;;;-5.50;99.90;;;;;;4949194;28;20479;-36
2023/02/07 03:12:57;;;;;;;12.98;8.55;;;-5.30;99.90;;;;;;4950655;28;20039;-33
2023/02/07 03:15:59;;;;;;;12.65;8.45;;;-5.20;99.90;;;;;;4948338;28;20089;-35
2023/02/07 03:18:28;;;;;;;20.50;12.18;;;-5.20;99.90;;;;;;4947948;28;20030;-33
2023/02/07 03:21:16;;;;;;;12.55;9.48;;;-5.00;99.90;;;;;;4951957;28;20027;-34
2023/02/07 03:23:45;;;;;;;12.82;8.35;;;-5.00;99.90;;;;;;4948916;28;20133;-37
2023/02/07 03:26:11;;;;;;;17.27;9.45;;;-5.00;99.90;;;;;;4947683;28;20516;-32
2023/02/07 03:28:38;;;;;;;16.42;9.77;;;-4.90;99.90;;;;;;4944776;28;20035;-34
2023/02/07 03:31:06;;;;;;;14.90;8.25;;;-4.80;99.90;;;;;;4950503;28;20102;-32
2023/02/07 03:33:33;;;;;;;15.77;10.50;;;-4.80;99.90;;;;;;4947130;28;20475;-36
2023/02/07 03:36:10;;;;;;;13.30;8.75;;;-4.80;99.90;;;;;;4949712;28;20031;-35
2023/02/07 03:38:36;;;;;;;17.20;11.88;;;-4.70;99.90;;;;;;4948864;28;20035;-32
2023/02/07 03:41:09;;;;;;;13.43;9.07;;;-4.80;99.90;;;;;;4979660;28;20118;-33
2023/02/07 03:43:37;;;;;;;15.77;9.65;;;-4.70;99.90;;;;;;4945754;28;20045;-34
2023/02/07 03:46:02;;;;;;;15.43;10.38;;;-4.70;99.90;;;;;;4947711;28;20080;-37
2023/02/07 03:48:28;;;;;;;9.90;7.45;;;-4.70;99.90;;;;;;4949542;28;20480;-32
2023/02/07 03:50:54;;;;;;;10.98;7.32;;;-4.80;99.90;;;;;;4949815;28;20039;-34
2023/02/07 03:53:20;;;;;;;9.63;7.53;;;-4.80;99.90;;;;;;4947439;28;20039;-35
2023/02/07 03:55:46;;;;;;;8.43;7.25;;;-4.90;99.90;;;;;;4948678;28;20077;-32
2023/02/07 03:58:11;;;;;;;7.22;6.32;;;-4.90;99.90;;;;;;4948151;28;20057;-35
2023/02/07 04:00:37;;;;;;;5.47;4.95;;;-4.80;99.90;;;;;;4948514;28;20038;-32
2023/02/07 04:03:04;;;;;;;12.00;7.72;;;-4.70;99.90;;;;;;4945422;28;21467;-35
2023/02/07 04:05:29;;;;;;;10.15;5.75;;;-4.60;99.90;;;;;;4949731;28;20043;-33
2023/02/07 04:07:55;;;;;;;9.27;7.00;;;-4.80;99.90;;;;;;4949885;28;20766;-31
2023/02/07 04:10:21;;;;;;;8.18;6.20;;;-4.90;99.90;;;;;;4946396;28;21288;-33
2023/02/07 04:12:46;;;;;;;15.70;8.27;;;-5.00;99.90;;;;;;4947469;28;20030;-33
2023/02/07 04:15:12;;;;;;;14.20;8.50;;;-5.30;99.90;;;;;;4951864;28;20041;-35
2023/02/07 04:17:38;;;;;;;10.30;7.15;;;-5.40;99.90;;;;;;4952803;28;20099;-33
2023/02/07 04:20:05;;;;;;;10.88;6.95;;;-5.60;99.90;;;;;;4949455;28;21844;-31
2023/02/07 04:22:31;;;;;;;11.05;6.95;;;-5.80;99.90;;;;;;4945908;28;20031;-36
2023/02/07 04:24:57;;;;;;;9.77;7.53;;;-6.00;99.90;;;;;;4947606;28;20031;-34
2023/02/07 04:27:22;;;;;;;11.15;8.13;;;-6.00;99.90;;;;;;4946368;28;20031;-33
2023/02/07 04:29:48;;;;;;;11.68;8.07;;;-5.90;99.90;;;;;;4946791;28;20036;-31
2023/02/07 04:32:14;;;;;;;12.10;7.53;;;-5.90;99.90;;;;;;4945664;28;20835;-34
2023/02/07 04:34:40;;;;;;;9.07;7.10;;;-5.90;99.90;;;;;;4947141;28;20073;-34
2023/02/07 04:37:05;;;;;;;7.78;5.95;;;-5.90;99.90;;;;;;4951167;28;20050;-34
2023/02/07 04:39:31;;;;;;;14.13;8.35;;;-5.90;99.90;;;;;;4947454;28;20256;-35
2023/02/07 04:41:57;;;;;;;11.45;7.65;;;-5.90;99.90;;;;;;4943880;28;20038;-36
2023/02/07 04:44:22;;;;;;;12.70;7.20;;;-6.00;99.90;;;;;;4943413;28;20610;-33
2023/02/07 04:46:48;;;;;;;11.38;7.15;;;-6.30;99.90;;;;;;4947897;28;20027;-34
2023/02/07 04:49:14;;;;;;;16.00;7.70;;;-6.50;99.90;;;;;;4943927;28;20033;-33
2023/02/07 04:51:39;;;;;;;12.25;8.45;;;-6.50;99.90;;;;;;4945717;28;20042;-35
2023/02/07 04:54:05;;;;;;;11.35;9.27;;;-6.50;99.90;;;;;;4942470;28;20552;-37
2023/02/07 04:56:31;;;;;;;10.50;7.90;;;-6.50;99.90;;;;;;4944858;28;20035;-33
2023/02/07 04:58:56;;;;;;;10.85;7.93;;;-6.40;99.90;;;;;;4944697;28;20027;-33
2023/02/07 05:01:22;;;;;;;11.93;6.95;;;-6.50;99.90;;;;;;4948003;28;20073;-33
2023/02/07 05:03:47;;;;;;;12.82;7.35;;;-6.40;99.90;;;;;;4944562;28;20401;-36
2023/02/07 05:06:13;;;;;;;12.63;8.40;;;-6.30;99.90;;;;;;4949477;28;20043;-32
2023/02/07 05:08:39;;;;;;;6.95;6.30;;;-6.30;99.90;;;;;;4947311;28;20038;-35
2023/02/07 05:11:05;;;;;;;10.60;8.57;;;-6.40;99.90;;;;;;4962334;28;20030;-35
2023/02/07 05:13:31;;;;;;;23.73;12.20;;;-6.60;99.90;;;;;;4944463;28;20045;-32
2023/02/07 05:15:56;;;;;;;13.38;8.73;;;-6.70;99.90;;;;;;4945330;28;20062;-33
2023/02/07 05:18:22;;;;;;;9.75;8.23;;;-6.80;99.90;;;;;;4946094;28;20121;-34
2023/02/07 05:20:48;;;;;;;13.52;8.90;;;-6.90;99.90;;;;;;4948891;28;20027;-38
2023/02/07 05:23:13;;;;;;;9.85;7.00;;;-6.80;99.90;;;;;;4944058;28;20058;-31
2023/02/07 05:25:42;;;;;;;16.83;9.80;;;-6.70;99.90;;;;;;4946414;28;20047;-32
2023/02/07 05:28:09;;;;;;;10.45;7.85;;;-6.80;99.90;;;;;;4946425;28;20415;-32
2023/02/07 05:30:34;;;;;;;6.82;6.15;;;-6.70;99.90;;;;;;4948928;28;20030;-32
2023/02/07 05:33:03;;;;;;;5.45;4.90;;;-6.80;99.90;;;;;;4945037;28;20520;-36
2023/02/07 05:35:39;;;;;;;10.32;6.70;;;-6.80;99.90;;;;;;4949277;28;20042;-33
2023/02/07 05:38:07;;;;;;;9.07;6.03;;;-6.60;99.90;;;;;;4945010;28;20031;-34
2023/02/07 05:40:35;;;;;;;4.95;4.32;;;-6.60;99.90;;;;;;4949112;28;20030;-36
2023/02/07 05:43:00;;;;;;;12.15;6.60;;;-6.70;99.90;;;;;;4941803;28;20034;-34
2023/02/07 05:45:26;;;;;;;4.88;4.38;;;-6.60;99.90;;;;;;4943930;28;20791;-31
2023/02/07 05:47:52;;;;;;;7.20;6.18;;;-6.60;99.90;;;;;;4945521;28;20117;-34
2023/02/07 05:50:18;;;;;;;13.18;7.95;;;-6.70;99.90;;;;;;4945782;28;20562;-33
2023/02/07 05:52:44;;;;;;;10.63;6.75;;;-6.80;99.90;;;;;;4947216;28;20038;-31
2023/02/07 05:55:11;;;;;;;11.75;7.70;;;-7.00;99.90;;;;;;4945980;28;20054;-33
2023/02/07 05:57:38;;;;;;;12.85;7.22;;;-7.10;99.90;;;;;;4945721;28;20109;-32
2023/02/07 06:00:05;;;;;;;12.05;8.18;;;-7.10;99.90;;;;;;4945964;28;21060;-32
2023/02/07 06:02:31;;;;;;;6.18;4.55;;;-7.00;99.90;;;;;;4942837;28;20035;-34
2023/02/07 06:04:57;;;;;;;5.07;4.68;;;-6.90;99.90;;;;;;4946206;28;20051;-35
2023/02/07 06:07:22;;;;;;;8.07;6.10;;;-7.00;99.90;;;;;;4946800;28;20535;-31
2023/02/07 06:09:48;;;;;;;8.73;4.60;;;-6.90;99.90;;;;;;4973841;28;20041;-36
2023/02/07 06:12:13;;;;;;;4.80;4.43;;;-6.70;99.90;;;;;;4947901;28;20081;-33
2023/02/07 06:14:39;;;;;;;6.80;5.80;;;-6.60;99.90;;;;;;4942315;28;20109;-35
2023/02/07 06:17:05;;;;;;;6.15;5.63;;;-6.50;99.90;;;;;;4946720;28;20078;-34
2023/02/07 06:19:30;;;;;;;10.05;5.32;;;-6.40;99.90;;;;;;4950626;28;20045;-31
2023/02/07 06:21:56;;;;;;;3.72;3.55;;;-6.40;99.90;;;;;;4970154;28;20034;-32
2023/02/07 06:24:21;;;;;;;9.18;6.50;;;-6.40;99.90;;;;;;4968998;28;20034;-33
2023/02/07 06:26:47;;;;;;;4.05;3.83;;;-6.30;99.90;;;;;;4966567;28;20060;-33
2023/02/07 06:29:13;;;;;;;4.72;4.38;;;-6.20;99.90;;;;;;4971637;28;20081;-33
2023/02/07 06:31:39;;;;;;;6.63;6.00;;;-6.30;99.90;;;;;;4962229;28;20046;-32
2023/02/07 06:34:05;;;;;;;9.23;6.13;;;-6.40;99.90;;;;;;4970114;28;20035;-35
2023/02/07 06:36:30;;;;;;;5.65;5.15;;;-6.40;99.90;;;;;;4965279;28;20492;-31
2023/02/07 06:38:56;;;;;;;5.88;4.50;;;-6.30;99.90;;;;;;4969174;28;20026;-32
2023/02/07 06:41:22;;;;;;;6.60;5.38;;;-6.40;99.90;;;;;;4967225;28;20039;-32
2023/02/07 06:43:47;;;;;;;6.35;5.75;;;-6.40;99.90;;;;;;4966089;28;20105;-33
2023/02/07 06:46:13;;;;;;;9.45;5.32;;;-6.50;99.90;;;;;;4964360;28;20412;-31
2023/02/07 06:48:39;;;;;;;6.97;4.93;;;-6.50;99.90;;;;;;4972654;28;20077;-35
2023/02/07 06:51:05;;;;;;;5.28;4.82;;;-6.70;99.90;;;;;;4970155;28;20035;-32
2023/02/07 06:53:31;;;;;;;9.60;5.40;;;-6.70;99.90;;;;;;4974207;28;20031;-32
2023/02/07 06:55:56;;;;;;;5.88;5.20;;;-6.70;99.90;;;;;;4962792;28;20146;-34
2023/02/07 06:58:22;;;;;;;7.93;5.97;;;-6.70;99.90;;;;;;4971064;28;20097;-32
2023/02/07 07:00:47;;;;;;;8.90;6.70;;;-6.70;99.90;;;;;;4972500;28;20075;-32
2023/02/07 07:03:15;;;;;;;8.13;6.32;;;-6.70;99.90;;;;;;4970819;28;20019;-34
2023/02/07 07:05:41;;;;;;;7.38;5.28;;;-6.70;99.90;;;;;;4971711;28;20122;-32
2023/02/07 07:08:08;;;;;;;7.38;4.78;;;-6.70;99.90;;;;;;4968884;28;20462;-36
2023/02/07 07:10:34;;;;;;;12.32;7.88;;;-6.70;99.90;;;;;;4970318;28;20039;-34
2023/02/07 07:12:59;;;;;;;9.30;6.55;;;-6.80;99.90;;;;;;4968091;28;20408;-32
2023/02/07 07:15:25;;;;;;;6.88;5.78;;;-6.80;99.90;;;;;;4970068;28;20045;-31
2023/02/07 07:17:51;;;;;;;6.13;5.55;;;-6.80;99.90;;;;;;4967858;28;20023;-31
2023/02/07 07:20:17;;;;;;;7.63;5.18;;;-6.70;99.90;;;;;;4969318;28;20146;-32
2023/02/07 07:22:42;;;;;;;8.27;5.60;;;-6.70;99.90;;;;;;5001345;28;20030;-35
2023/02/07 07:25:08;;;;;;;7.05;6.43;;;-6.80;99.90;;;;;;4966149;28;20157;-32
2023/02/07 07:27:34;;;;;;;7.50;6.68;;;-6.90;99.90;;;;;;4967557;28;20727;-33
2023/02/07 07:29:59;;;;;;;7.82;6.10;;;-6.90;99.90;;;;;;4966110;28;20117;-31
2023/02/07 07:32:26;;;;;;;20.05;11.80;;;-6.90;99.90;;;;;;4969018;28;20669;-32
2023/02/07 07:34:53;;;;;;;18.70;10.07;;;-6.90;99.90;;;;;;4813106;28;20034;-31
2023/02/07 07:37:19;;;;;;;16.48;10.15;;;-6.80;99.90;;;;;;4969631;28;20042;-31
2023/02/07 07:39:44;;;;;;;13.43;8.75;;;-6.70;99.90;;;;;;4971005;28;20384;-33
2023/02/07 07:42:10;;;;;;;14.93;9.15;;;-6.70;99.90;;;;;;4967033;28;20039;-34
2023/02/07 07:44:36;;;;;;;11.90;8.50;;;-6.60;99.90;;;;;;4971645;28;20149;-31
2023/02/07 07:47:02;;;;;;;19.90;12.15;;;-6.60;99.90;;;;;;4975095;28;20035;-33
2023/02/07 07:49:27;;;;;;;16.88;10.20;;;-6.60;99.90;;;;;;4973160;28;20436;-34
2023/02/07 07:51:53;;;;;;;12.68;8.73;;;-6.50;99.90;;;;;;4969868;28;20077;-31
2023/02/07 07:54:19;;;;;;;14.38;9.82;;;-6.40;99.90;;;;;;4971216;28;20035;-32
2023/02/07 07:56:44;;;;;;;8.23;6.32;;;-6.40;99.90;;;;;;4971448;28;20215;-32
2023/02/07 07:59:10;;;;;;;5.10;4.63;;;-6.30;99.90;;;;;;4969460;28;20050;-32
2023/02/07 08:01:36;;;;;;;10.10;6.55;;;-6.30;99.90;;;;;;4970475;28;20034;-32
2023/02/07 08:04:02;;;;;;;12.52;6.82;;;-6.20;99.90;;;;;;4966434;28;20039;-31
2023/02/07 08:06:28;;;;;;;14.43;9.15;;;-6.20;99.90;;;;;;4972459;28;20084;-31
2023/02/07 08:08:55;;;;;;;14.77;8.93;;;-6.20;99.90;;;;;;4959914;28;20041;-32
2023/02/07 08:11:21;;;;;;;14.80;7.57;;;-6.10;99.90;;;;;;4975848;28;20035;-32
2023/02/07 08:13:48;;;;;;;13.23;8.75;;;-6.00;99.90;;;;;;4974142;28;20030;-32
2023/02/07 08:16:14;;;;;;;12.13;8.85;;;-6.00;99.90;;;;;;4966907;28;20058;-32
2023/02/07 08:18:39;;;;;;;17.77;10.05;;;-5.90;99.90;;;;;;4968932;28;20023;-33
2023/02/07 08:21:05;;;;;;;14.32;8.32;;;-5.80;99.90;;;;;;4969011;28;20023;-35
2023/02/07 08:23:31;;;;;;;18.60;11.02;;;-5.70;99.90;;;;;;4966696;28;20248;-35
2023/02/07 08:25:57;;;;;;;21.05;12.30;;;-5.70;99.90;;;;;;4970519;28;20380;-34
2023/02/07 08:28:23;;;;;;;18.75;10.23;;;-5.60;99.90;;;;;;4970044;28;20018;-32
2023/02/07 08:30:48;;;;;;;17.83;11.00;;;-5.50;99.90;;;;;;4969405;28;20035;-33
2023/02/07 08:33:15;;;;;;;21.63;11.90;;;-5.50;99.90;;;;;;4968731;28;20126;-31
2023/02/07 08:35:41;;;;;;;27.88;13.65;;;-5.40;99.90;;;;;;4967951;28;20400;-32
2023/02/07 08:38:07;;;;;;;24.48;14.60;;;-5.30;99.90;;;;;;4966564;28;20038;-33
2023/02/07 08:40:32;;;;;;;26.70;12.77;;;-5.30;99.90;;;;;;4966710;28;20058;-33
2023/02/07 08:42:58;;;;;;;20.77;11.75;;;-5.20;99.90;;;;;;4970949;28;20027;-33
2023/02/07 08:45:24;;;;;;;23.00;14.55;;;-5.10;99.90;;;;;;4971889;28;20038;-33
2023/02/07 08:47:50;;;;;;;24.10;15.30;;;-5.10;99.90;;;;;;4969690;28;20044;-35
2023/02/07 08:50:16;;;;;;;24.88;15.13;;;-5.00;99.90;;;;;;4970115;28;20030;-34
2023/02/07 08:52:42;;;;;;;25.05;16.15;;;-4.90;99.90;;;;;;4970479;28;20034;-35
2023/02/07 08:55:08;;;;;;;27.02;14.18;;;-4.90;99.90;;;;;;4971110;28;20057;-33
2023/02/07 08:57:35;;;;;;;24.67;13.60;;;-4.80;99.90;;;;;;4966866;28;20034;-36
2023/02/07 09:00:00;;;;;;;24.33;14.10;;;-4.70;99.90;;;;;;4968240;28;20440;-37
2023/02/07 09:02:27;;;;;;;24.33;14.65;;;-4.60;99.90;;;;;;4987963;28;20037;-31
2023/02/07 09:04:52;;;;;;;28.48;15.15;;;-4.50;99.90;;;;;;4966372;28;20042;-32
2023/02/07 09:07:18;;;;;;;20.80;13.70;;;-4.40;99.90;;;;;;4969750;28;20058;-32
2023/02/07 09:09:45;;;;;;;21.83;13.90;;;-4.40;99.90;;;;;;4967429;28;20105;-33
2023/02/07 09:12:11;;;;;;;19.60;13.23;;;-4.30;99.90;;;;;;4968502;28;20031;-32
2023/02/07 09:14:37;;;;;;;18.58;12.55;;;-4.20;99.90;;;;;;4968271;28;20125;-31
2023/02/07 09:17:03;;;;;;;22.15;13.77;;;-4.20;99.90;;;;;;4967117;28;20034;-30
2023/02/07 09:19:29;;;;;;;23.85;14.23;;;-4.10;99.90;;;;;;4968501;28;20022;-30
2023/02/07 09:21:54;;;;;;;22.52;13.05;;;-4.10;99.90;;;;;;4974300;28;20496;-34
2023/02/07 09:24:20;;;;;;;23.40;12.70;;;-4.00;99.90;;;;;;4971432;28;20439;-31
2023/02/07 09:26:46;;;;;;;21.00;12.93;;;-4.00;99.90;;;;;;4971677;28;20081;-31
2023/02/07 09:29:15;;;;;;;20.73;12.90;;;-4.00;99.90;;;;;;4969621;28;20125;-32
2023/02/07 09:31:42;;;;;;;23.17;14.20;;;-3.90;99.90;;;;;;4965199;28;20034;-31
2023/02/07 09:34:08;;;;;;;21.70;13.20;;;-3.90;99.90;;;;;;4963839;28;20038;-30
2023/02/07 09:36:33;;;;;;;24.75;14.40;;;-3.90;99.90;;;;;;4973402;28;20031;-31
2023/02/07 09:39:00;;;;;;;22.38;12.82;;;-3.80;99.90;;;;;;4967547;28;20026;-32
2023/02/07 09:42:06;;;;;;;22.25;13.43;;;-3.70;99.90;;;;;;4971224;28;20030;-30
2023/02/07 09:44:58;;;;;;;23.30;12.93;;;-3.60;99.90;;;;;;4964266;28;20065;-32
2023/02/07 09:47:24;;;;;;;23.15;13.68;;;-3.60;99.90;;;;;;4963450;28;20519;-31
2023/02/07 09:50:04;;;;;;;20.35;11.85;;;-3.60;99.90;;;;;;4963382;28;20464;-30
2023/02/07 09:52:39;;;;;;;21.23;13.35;;;-3.60;99.90;;;;;;4973068;28;20027;-31
2023/02/07 09:55:14;;;;;;;24.08;13.68;;;-3.50;99.90;;;;;;4963826;28;20564;-33
2023/02/07 09:57:45;;;;;;;21.88;12.82;;;-3.50;99.90;;;;;;4965113;28;20358;-30
2023/02/07 10:00:27;;;;;;;22.77;13.05;;;-3.40;99.90;;;;;;4974776;28;20029;-30
2023/02/07 10:03:08;;;;;;;21.88;13.40;;;-3.30;99.90;;;;;;4966966;28;20133;-32
2023/02/07 10:06:02;;;;;;;20.80;13.30;;;-3.20;99.90;;;;;;4965497;28;20057;-30
2023/02/07 10:08:28;;;;;;;23.02;13.00;;;-3.10;99.90;;;;;;4973988;28;20084;-31
2023/02/07 10:11:12;;;;;;;23.77;13.82;;;-3.00;99.90;;;;;;4972167;28;20026;-30
2023/02/07 10:13:56;;;;;;;21.42;13.68;;;-2.90;99.90;;;;;;4976802;28;20477;-31
2023/02/07 10:16:43;;;;;;;28.35;14.80;;;-2.90;99.90;;;;;;4967570;28;20066;-31
2023/02/07 10:19:33;;;;;;;19.67;13.50;;;-2.80;99.90;;;;;;4965417;28;20019;-32
2023/02/07 10:22:05;;;;;;;19.20;11.70;;;-2.60;99.90;;;;;;4969212;28;20381;-30
2023/02/07 10:24:40;;;;;;;21.77;12.63;;;-2.60;99.90;;;;;;4968075;28;20109;-30
2023/02/07 10:27:10;;;;;;;18.52;11.85;;;-2.50;99.90;;;;;;4963596;28;20388;-32
2023/02/07 10:30:01;;;;;;;19.27;11.05;;;-2.40;99.90;;;;;;4966043;28;20033;-33
2023/02/07 10:32:31;;;;;;;15.50;9.25;;;-2.40;99.90;;;;;;4963745;28;20054;-31
2023/02/07 10:35:28;;;;;;;23.55;15.02;;;-2.30;99.90;;;;;;4964390;28;20043;-31
2023/02/07 10:37:58;;;;;;;19.05;10.98;;;-2.20;99.90;;;;;;4970332;28;20042;-31
2023/02/07 10:40:28;;;;;;;17.88;11.30;;;-2.10;99.90;;;;;;4968562;28;20027;-33
2023/02/07 10:43:04;;;;;;;19.20;11.00;;;-2.10;99.90;;;;;;4970095;28;20504;-31
2023/02/07 10:45:30;;;;;;;17.98;11.15;;;-2.00;99.90;;;;;;4967177;28;20027;-31
2023/02/07 10:47:57;;;;;;;14.35;9.52;;;-1.90;99.90;;;;;;4968151;28;20081;-32
2023/02/07 10:50:25;;;;;;;13.88;8.88;;;-1.80;99.90;;;;;;4963686;28;20042;-34
2023/02/07 10:52:55;;;;;;;19.58;11.65;;;-1.70;99.90;;;;;;4966253;28;20071;-32
2023/02/07 10:55:42;;;;;;;18.73;11.38;;;-1.60;99.90;;;;;;4983264;28;20567;-32
2023/02/07 10:58:17;;;;;;;13.55;9.57;;;-1.60;99.90;;;;;;4965330;28;20484;-31
2023/02/07 11:00:48;;;;;;;20.38;11.80;;;-1.50;99.90;;;;;;4964627;28;20062;-33
2023/02/07 11:03:20;;;;;;;16.13;9.75;;;-1.50;99.90;;;;;;4970459;28;20022;-32
2023/02/07 11:05:54;;;;;;;18.90;11.93;;;-1.40;99.90;;;;;;4965017;28;20126;-32
2023/02/07 11:08:28;;;;;;;20.10;13.13;;;-1.30;99.90;;;;;;4978965;28;20123;-34
2023/02/07 11:11:15;;;;;;;22.08;12.00;;;-1.30;99.90;;;;;;4965391;28;20062;-36
2023/02/07 11:13:48;;;;;;;22.33;12.10;;;-1.40;99.90;;;;;;4969836;28;20532;-33
2023/02/07 11:16:17;;;;;;;24.08;12.68;;;-1.50;99.90;;;;;;4957077;28;20086;-32
2023/02/07 11:19:01;;;;;;;20.02;12.88;;;-1.40;99.90;;;;;;4967991;28;20485;-32
2023/02/07 11:21:32;;;;;;;20.00;12.43;;;-1.40;99.90;;;;;;4969979;28;20122;-32
2023/02/07 11:24:04;;;;;;;24.15;14.73;;;-1.30;99.90;;;;;;4972570;28;20026;-32
2023/02/07 11:26:31;;;;;;;21.42;13.00;;;-1.30;99.90;;;;;;4966786;28;20093;-33
2023/02/07 11:29:13;;;;;;;27.73;14.03;;;-1.30;99.90;;;;;;4963531;28;20035;-31
2023/02/07 11:31:40;;;;;;;16.00;10.85;;;-1.20;99.90;;;;;;4972239;28;20286;-32
2023/02/07 11:34:25;;;;;;;14.23;8.52;;;-1.10;99.90;;;;;;4971288;28;20480;-32
2023/02/07 11:36:51;;;;;;;15.80;9.57;;;-0.90;99.90;;;;;;4971172;28;20031;-32
2023/02/07 11:39:22;;;;;;;10.38;7.10;;;-0.90;99.90;;;;;;4968950;28;20035;-32
2023/02/07 11:41:59;;;;;;;14.05;8.15;;;-0.70;99.90;;;;;;4969951;28;20073;-32
2023/02/07 11:44:28;;;;;;;16.65;9.25;;;-0.70;99.90;;;;;;4967232;28;20060;-30
2023/02/07 11:46:57;;;;;;;11.25;8.13;;;-0.60;99.90;;;;;;4968233;28;20109;-31
2023/02/07 11:49:39;;;;;;;12.25;7.05;;;-0.50;99.90;;;;;;4965313;28;21639;-33
2023/02/07 11:52:06;;;;;;;15.60;9.93;;;-0.50;99.90;;;;;;4970988;28;20078;-32
2023/02/07 11:54:32;;;;;;;13.77;7.90;;;-0.50;99.90;;;;;;4966321;28;20087;-30
2023/02/07 11:57:05;;;;;;;13.02;8.65;;;-0.30;99.90;;;;;;4970860;28;20184;-33
2023/02/07 11:59:34;;;;;;;15.02;8.55;;;-0.20;99.90;;;;;;4966129;28;20039;-32
2023/02/07 12:02:15;;;;;;;17.10;10.48;;;0.00;99.90;;;;;;4970248;28;20043;-33
2023/02/07 12:04:41;;;;;;;12.63;6.55;;;0.10;99.90;;;;;;4972449;28;20565;-33
2023/02/07 12:07:24;;;;;;;8.88;5.75;;;0.10;99.90;;;;;;4973209;28;20103;-33
2023/02/07 12:10:00;;;;;;;10.50;6.70;;;0.10;98.70;;;;;;4964913;28;20027;-31
2023/02/07 12:12:44;;;;;;;12.52;7.25;;;0.10;99.80;;;;;;4967340;28;20061;-31
2023/02/07 12:15:18;;;;;;;11.18;6.65;;;0.20;99.90;;;;;;4969315;28;20436;-30
2023/02/07 12:18:05;;;;;;;7.95;5.75;;;0.30;99.90;;;;;;4972396;28;20031;-30
2023/02/07 12:21:09;;;;;;;6.60;4.70;;;0.30;98.60;;;;;;4973843;28;20031;-33
2023/02/07 12:23:59;;;;;;;7.03;5.07;;;0.30;96.80;;;;;;4973176;28;20582;-33
2023/02/07 12:26:46;;;;;;;6.25;4.93;;;0.40;95.80;;;;;;4974525;28;20042;-35
2023/02/07 12:29:34;;;;;;;7.50;5.00;;;0.30;95.50;;;;;;4970472;28;20058;-34
2023/02/07 12:32:06;;;;;;;11.05;6.35;;;0.40;99.50;;;;;;4965253;28;20038;-32
2023/02/07 12:34:48;;;;;;;11.07;5.30;;;0.50;96.00;;;;;;4966313;28;20038;-30
2023/02/07 12:37:27;;;;;;;11.13;7.38;;;0.50;94.30;;;;;;4984974;28;20441;-32
2023/02/07 12:40:13;;;;;;;7.63;5.30;;;0.60;96.20;;;;;;4970611;28;20137;-31
2023/02/07 12:42:41;;;;;;;8.18;5.63;;;0.50;90.20;;;;;;4967083;28;20516;-31
2023/02/07 12:45:13;;;;;;;8.38;6.20;;;0.60;90.80;;;;;;4969245;28;20030;-32
2023/02/07 12:48:05;;;;;;;8.60;6.10;;;0.50;92.60;;;;;;4981071;28;20519;-30
2023/02/07 12:50:58;;;;;;;7.70;5.47;;;0.60;98.20;;;;;;4970010;28;20386;-32
2023/02/07 12:53:31;;;;;;;9.35;5.85;;;0.60;96.30;;;;;;4967569;28;20045;-33
2023/02/07 12:56:06;;;;;;;8.57;5.50;;;0.60;93.70;;;;;;4964731;28;20050;-31